sensor_id;sensor_type;location;lat;lon;timestamp;P1;durP1;ratioP1;P2;durP2;ratioP2
6205;SDS011;3136;48.788;9.772;2022-08-21T00:01:55;38.43;;;3.60;;
6205;SDS011;3136;48.788;9.772;2022-08-21T00:04:21;64.67;;;3.47;;
6205;SDS011;3136;48.788;9.772;2022-08-21T00:06:46;84.20;;;3.90;;
6205;SDS011;3136;48.788;9.772;2022-08-21T00:09:12;34.13;;;3.60;;
6205;SDS011;3136;48.788;9.772;2022-08-21T00:11:38;26.40;;;3.43;;
6205;SDS011;3136;48.788;9.772;2022-08-21T00:14:04;38.03;;;3.67;;
6205;SDS011;3136;48.788;9.772;2022-08-21T00:16:32;30.47;;;3.43;;
6205;SDS011;3136;48.788;9.772;2022-08-21T00:18:58;22.17;;;3.60;;
6205;SDS011;3136;48.788;9.772;2022-08-21T00:21:24;31.50;;;4.00;;
6205;SDS011;3136;48.788;9.772;2022-08-21T00:23:50;62.87;;;3.77;;
6205;SDS011;3136;48.788;9.772;2022-08-21T00:26:16;103.67;;;4.87;;
6205;SDS011;3136;48.788;9.772;2022-08-21T00:28:41;94.17;;;4.00;;
6205;SDS011;3136;48.788;9.772;2022-08-21T00:31:07;79.00;;;4.27;;
6205;SDS011;3136;48.788;9.772;2022-08-21T00:33:33;32.90;;;3.77;;
6205;SDS011;3136;48.788;9.772;2022-08-21T00:35:59;23.47;;;3.80;;
6205;SDS011;3136;48.788;9.772;2022-08-21T00:38:24;98.60;;;4.47;;
6205;SDS011;3136;48.788;9.772;2022-08-21T00:40:54;270.03;;;6.80;;
6205;SDS011;3136;48.788;9.772;2022-08-21T00:43:24;53.50;;;4.77;;
6205;SDS011;3136;48.788;9.772;2022-08-21T00:45:53;113.10;;;5.20;;
6205;SDS011;3136;48.788;9.772;2022-08-21T00:48:20;150.03;;;5.73;;
6205;SDS011;3136;48.788;9.772;2022-08-21T00:50:49;192.10;;;5.90;;
6205;SDS011;3136;48.788;9.772;2022-08-21T00:53:20;264.37;;;6.83;;
6205;SDS011;3136;48.788;9.772;2022-08-21T00:55:47;177.60;;;5.30;;
6205;SDS011;3136;48.788;9.772;2022-08-21T00:58:13;152.50;;;5.30;;
6205;SDS011;3136;48.788;9.772;2022-08-21T01:00:42;188.50;;;6.00;;
6205;SDS011;3136;48.788;9.772;2022-08-21T01:03:10;165.77;;;6.67;;
6205;SDS011;3136;48.788;9.772;2022-08-21T01:05:43;135.23;;;5.00;;
6205;SDS011;3136;48.788;9.772;2022-08-21T01:08:10;127.30;;;5.30;;
6205;SDS011;3136;48.788;9.772;2022-08-21T01:10:36;199.40;;;6.60;;
6205;SDS011;3136;48.788;9.772;2022-08-21T01:13:03;224.40;;;7.10;;
6205;SDS011;3136;48.788;9.772;2022-08-21T01:15:33;194.20;;;6.17;;
6205;SDS011;3136;48.788;9.772;2022-08-21T01:18:01;252.47;;;6.93;;
6205;SDS011;3136;48.788;9.772;2022-08-21T01:20:29;89.73;;;4.50;;
6205;SDS011;3136;48.788;9.772;2022-08-21T01:22:55;56.07;;;3.80;;
6205;SDS011;3136;48.788;9.772;2022-08-21T01:25:20;31.43;;;4.10;;
6205;SDS011;3136;48.788;9.772;2022-08-21T01:27:46;165.70;;;5.50;;
6205;SDS011;3136;48.788;9.772;2022-08-21T01:30:16;165.00;;;5.73;;
6205;SDS011;3136;48.788;9.772;2022-08-21T01:32:45;146.97;;;5.00;;
6205;SDS011;3136;48.788;9.772;2022-08-21T01:35:12;56.87;;;3.90;;
6205;SDS011;3136;48.788;9.772;2022-08-21T01:37:38;102.33;;;4.70;;
6205;SDS011;3136;48.788;9.772;2022-08-21T01:40:04;26.33;;;3.60;;
6205;SDS011;3136;48.788;9.772;2022-08-21T01:42:31;71.40;;;4.20;;
6205;SDS011;3136;48.788;9.772;2022-08-21T01:44:56;60.33;;;4.10;;
6205;SDS011;3136;48.788;9.772;2022-08-21T01:47:22;111.37;;;4.63;;
6205;SDS011;3136;48.788;9.772;2022-08-21T01:49:48;34.70;;;3.70;;
6205;SDS011;3136;48.788;9.772;2022-08-21T01:52:14;17.67;;;3.33;;
6205;SDS011;3136;48.788;9.772;2022-08-21T01:54:41;94.27;;;10.00;;
6205;SDS011;3136;48.788;9.772;2022-08-21T01:57:06;43.20;;;4.73;;
6205;SDS011;3136;48.788;9.772;2022-08-21T01:59:32;63.80;;;4.17;;
6205;SDS011;3136;48.788;9.772;2022-08-21T02:01:58;32.87;;;3.20;;
6205;SDS011;3136;48.788;9.772;2022-08-21T02:04:23;65.87;;;3.47;;
6205;SDS011;3136;48.788;9.772;2022-08-21T02:06:49;48.63;;;3.37;;
6205;SDS011;3136;48.788;9.772;2022-08-21T02:09:15;9.13;;;2.90;;
6205;SDS011;3136;48.788;9.772;2022-08-21T02:11:42;8.37;;;3.23;;
6205;SDS011;3136;48.788;9.772;2022-08-21T02:14:08;38.27;;;3.20;;
6205;SDS011;3136;48.788;9.772;2022-08-21T02:16:39;34.63;;;3.37;;
6205;SDS011;3136;48.788;9.772;2022-08-21T02:19:06;14.60;;;3.23;;
6205;SDS011;3136;48.788;9.772;2022-08-21T02:21:32;52.97;;;3.90;;
6205;SDS011;3136;48.788;9.772;2022-08-21T02:23:57;75.30;;;4.00;;
6205;SDS011;3136;48.788;9.772;2022-08-21T02:26:23;18.23;;;3.13;;
6205;SDS011;3136;48.788;9.772;2022-08-21T02:28:49;13.63;;;3.40;;
6205;SDS011;3136;48.788;9.772;2022-08-21T02:31:15;38.23;;;3.67;;
6205;SDS011;3136;48.788;9.772;2022-08-21T02:33:41;7.90;;;3.23;;
6205;SDS011;3136;48.788;9.772;2022-08-21T02:36:07;38.53;;;4.03;;
6205;SDS011;3136;48.788;9.772;2022-08-21T02:38:34;270.63;;;6.57;;
6205;SDS011;3136;48.788;9.772;2022-08-21T02:41:03;326.70;;;7.27;;
6205;SDS011;3136;48.788;9.772;2022-08-21T02:43:34;261.73;;;6.83;;
6205;SDS011;3136;48.788;9.772;2022-08-21T02:46:00;415.53;;;8.83;;
6205;SDS011;3136;48.788;9.772;2022-08-21T02:48:28;120.50;;;4.50;;
6205;SDS011;3136;48.788;9.772;2022-08-21T02:50:57;120.00;;;4.70;;
6205;SDS011;3136;48.788;9.772;2022-08-21T02:53:25;42.47;;;3.90;;
6205;SDS011;3136;48.788;9.772;2022-08-21T02:55:51;68.60;;;4.20;;
6205;SDS011;3136;48.788;9.772;2022-08-21T02:58:19;233.90;;;6.47;;
6205;SDS011;3136;48.788;9.772;2022-08-21T03:00:48;91.17;;;4.27;;
6205;SDS011;3136;48.788;9.772;2022-08-21T03:03:14;76.83;;;3.90;;
6205;SDS011;3136;48.788;9.772;2022-08-21T03:05:40;73.73;;;3.80;;
6205;SDS011;3136;48.788;9.772;2022-08-21T03:08:08;79.93;;;4.43;;
6205;SDS011;3136;48.788;9.772;2022-08-21T03:10:35;145.00;;;4.90;;
6205;SDS011;3136;48.788;9.772;2022-08-21T03:13:02;43.97;;;3.73;;
6205;SDS011;3136;48.788;9.772;2022-08-21T03:15:28;57.30;;;4.00;;
6205;SDS011;3136;48.788;9.772;2022-08-21T03:17:55;70.13;;;4.03;;
6205;SDS011;3136;48.788;9.772;2022-08-21T03:20:22;36.60;;;4.20;;
6205;SDS011;3136;48.788;9.772;2022-08-21T03:22:50;62.57;;;4.27;;
6205;SDS011;3136;48.788;9.772;2022-08-21T03:25:16;73.27;;;4.40;;
6205;SDS011;3136;48.788;9.772;2022-08-21T03:27:43;30.10;;;3.33;;
6205;SDS011;3136;48.788;9.772;2022-08-21T03:30:09;25.03;;;3.47;;
6205;SDS011;3136;48.788;9.772;2022-08-21T03:32:36;19.20;;;3.30;;
6205;SDS011;3136;48.788;9.772;2022-08-21T03:35:02;18.37;;;3.60;;
6205;SDS011;3136;48.788;9.772;2022-08-21T03:37:29;21.40;;;3.60;;
6205;SDS011;3136;48.788;9.772;2022-08-21T03:39:55;46.60;;;3.93;;
6205;SDS011;3136;48.788;9.772;2022-08-21T03:42:21;105.17;;;4.60;;
6205;SDS011;3136;48.788;9.772;2022-08-21T03:44:47;157.97;;;5.50;;
6205;SDS011;3136;48.788;9.772;2022-08-21T03:47:13;125.70;;;5.70;;
6205;SDS011;3136;48.788;9.772;2022-08-21T03:49:39;137.63;;;5.20;;
6205;SDS011;3136;48.788;9.772;2022-08-21T03:52:04;34.43;;;3.33;;
6205;SDS011;3136;48.788;9.772;2022-08-21T03:54:30;43.80;;;3.97;;
6205;SDS011;3136;48.788;9.772;2022-08-21T03:56:56;24.83;;;4.17;;
6205;SDS011;3136;48.788;9.772;2022-08-21T03:59:22;27.47;;;4.07;;
6205;SDS011;3136;48.788;9.772;2022-08-21T04:01:52;66.77;;;4.43;;
6205;SDS011;3136;48.788;9.772;2022-08-21T04:04:28;44.37;;;4.00;;
6205;SDS011;3136;48.788;9.772;2022-08-21T04:06:55;69.73;;;3.97;;
6205;SDS011;3136;48.788;9.772;2022-08-21T04:09:22;13.13;;;3.40;;
6205;SDS011;3136;48.788;9.772;2022-08-21T04:11:48;28.63;;;3.50;;
6205;SDS011;3136;48.788;9.772;2022-08-21T04:14:14;127.40;;;4.80;;
6205;SDS011;3136;48.788;9.772;2022-08-21T04:16:41;71.23;;;4.47;;
6205;SDS011;3136;48.788;9.772;2022-08-21T04:19:08;96.53;;;5.10;;
6205;SDS011;3136;48.788;9.772;2022-08-21T04:21:37;66.50;;;4.30;;
6205;SDS011;3136;48.788;9.772;2022-08-21T04:24:04;65.43;;;4.70;;
6205;SDS011;3136;48.788;9.772;2022-08-21T04:26:32;65.97;;;4.60;;
6205;SDS011;3136;48.788;9.772;2022-08-21T04:28:59;42.80;;;5.07;;
6205;SDS011;3136;48.788;9.772;2022-08-21T04:31:25;32.80;;;4.10;;
6205;SDS011;3136;48.788;9.772;2022-08-21T04:33:56;20.80;;;3.80;;
6205;SDS011;3136;48.788;9.772;2022-08-21T04:36:22;17.00;;;3.90;;
6205;SDS011;3136;48.788;9.772;2022-08-21T04:38:48;27.53;;;3.80;;
6205;SDS011;3136;48.788;9.772;2022-08-21T04:41:13;35.87;;;3.70;;
6205;SDS011;3136;48.788;9.772;2022-08-21T04:43:39;37.27;;;3.27;;
6205;SDS011;3136;48.788;9.772;2022-08-21T04:46:05;57.53;;;4.50;;
6205;SDS011;3136;48.788;9.772;2022-08-21T04:48:30;23.40;;;3.70;;
6205;SDS011;3136;48.788;9.772;2022-08-21T04:51:19;26.90;;;3.30;;
6205;SDS011;3136;48.788;9.772;2022-08-21T04:53:53;52.67;;;3.73;;
6205;SDS011;3136;48.788;9.772;2022-08-21T04:56:24;72.63;;;3.87;;
6205;SDS011;3136;48.788;9.772;2022-08-21T04:58:57;91.83;;;4.20;;
6205;SDS011;3136;48.788;9.772;2022-08-21T05:01:25;58.33;;;4.67;;
6205;SDS011;3136;48.788;9.772;2022-08-21T05:03:54;35.10;;;4.23;;
6205;SDS011;3136;48.788;9.772;2022-08-21T05:06:22;21.53;;;4.27;;
6205;SDS011;3136;48.788;9.772;2022-08-21T05:08:49;59.60;;;4.50;;
6205;SDS011;3136;48.788;9.772;2022-08-21T05:11:17;20.20;;;2.97;;
6205;SDS011;3136;48.788;9.772;2022-08-21T05:13:44;11.63;;;2.60;;
6205;SDS011;3136;48.788;9.772;2022-08-21T05:16:10;48.60;;;4.33;;
6205;SDS011;3136;48.788;9.772;2022-08-21T05:18:36;37.40;;;3.30;;
6205;SDS011;3136;48.788;9.772;2022-08-21T05:21:02;13.60;;;2.87;;
6205;SDS011;3136;48.788;9.772;2022-08-21T05:23:27;17.27;;;2.63;;
6205;SDS011;3136;48.788;9.772;2022-08-21T05:25:53;35.00;;;3.20;;
6205;SDS011;3136;48.788;9.772;2022-08-21T05:28:20;76.80;;;4.00;;
6205;SDS011;3136;48.788;9.772;2022-08-21T05:30:46;43.07;;;3.40;;
6205;SDS011;3136;48.788;9.772;2022-08-21T05:33:11;15.83;;;2.80;;
6205;SDS011;3136;48.788;9.772;2022-08-21T05:35:37;4.00;;;3.27;;
6205;SDS011;3136;48.788;9.772;2022-08-21T05:38:03;7.60;;;3.80;;
6205;SDS011;3136;48.788;9.772;2022-08-21T05:40:29;4.40;;;4.00;;
6205;SDS011;3136;48.788;9.772;2022-08-21T05:42:55;10.17;;;3.80;;
6205;SDS011;3136;48.788;9.772;2022-08-21T05:45:26;12.77;;;3.60;;
6205;SDS011;3136;48.788;9.772;2022-08-21T05:47:57;8.10;;;3.60;;
6205;SDS011;3136;48.788;9.772;2022-08-21T05:50:23;15.07;;;4.10;;
6205;SDS011;3136;48.788;9.772;2022-08-21T05:52:49;3.77;;;3.27;;
6205;SDS011;3136;48.788;9.772;2022-08-21T05:55:14;8.00;;;3.47;;
6205;SDS011;3136;48.788;9.772;2022-08-21T05:57:40;6.27;;;3.30;;
6205;SDS011;3136;48.788;9.772;2022-08-21T06:00:06;6.03;;;3.20;;
6205;SDS011;3136;48.788;9.772;2022-08-21T06:02:35;3.50;;;3.20;;
6205;SDS011;3136;48.788;9.772;2022-08-21T06:05:01;6.10;;;3.50;;
6205;SDS011;3136;48.788;9.772;2022-08-21T06:07:26;4.40;;;3.50;;
6205;SDS011;3136;48.788;9.772;2022-08-21T06:09:52;4.97;;;3.83;;
6205;SDS011;3136;48.788;9.772;2022-08-21T06:12:17;5.37;;;3.53;;
6205;SDS011;3136;48.788;9.772;2022-08-21T06:14:43;4.40;;;3.83;;
6205;SDS011;3136;48.788;9.772;2022-08-21T06:17:10;3.87;;;3.57;;
6205;SDS011;3136;48.788;9.772;2022-08-21T06:19:37;4.20;;;3.80;;
6205;SDS011;3136;48.788;9.772;2022-08-21T06:22:04;4.30;;;3.90;;
6205;SDS011;3136;48.788;9.772;2022-08-21T06:24:29;4.83;;;4.27;;
6205;SDS011;3136;48.788;9.772;2022-08-21T06:26:56;4.50;;;4.10;;
6205;SDS011;3136;48.788;9.772;2022-08-21T06:29:21;6.90;;;4.60;;
6205;SDS011;3136;48.788;9.772;2022-08-21T06:31:48;4.53;;;4.07;;
6205;SDS011;3136;48.788;9.772;2022-08-21T06:34:15;5.50;;;4.47;;
6205;SDS011;3136;48.788;9.772;2022-08-21T06:36:41;4.97;;;4.20;;
6205;SDS011;3136;48.788;9.772;2022-08-21T06:39:07;5.03;;;4.10;;
6205;SDS011;3136;48.788;9.772;2022-08-21T06:41:33;4.60;;;4.27;;
6205;SDS011;3136;48.788;9.772;2022-08-21T06:43:59;5.87;;;4.00;;
6205;SDS011;3136;48.788;9.772;2022-08-21T06:46:25;6.20;;;4.10;;
6205;SDS011;3136;48.788;9.772;2022-08-21T06:48:54;8.63;;;4.77;;
6205;SDS011;3136;48.788;9.772;2022-08-21T06:51:20;5.43;;;4.23;;
6205;SDS011;3136;48.788;9.772;2022-08-21T06:53:46;5.20;;;4.40;;
6205;SDS011;3136;48.788;9.772;2022-08-21T06:56:11;4.70;;;4.30;;
6205;SDS011;3136;48.788;9.772;2022-08-21T06:58:37;6.67;;;4.47;;
6205;SDS011;3136;48.788;9.772;2022-08-21T07:01:04;5.20;;;4.10;;
6205;SDS011;3136;48.788;9.772;2022-08-21T07:03:31;5.53;;;4.60;;
6205;SDS011;3136;48.788;9.772;2022-08-21T07:06:03;5.20;;;4.70;;
6205;SDS011;3136;48.788;9.772;2022-08-21T07:08:29;6.53;;;4.80;;
6205;SDS011;3136;48.788;9.772;2022-08-21T07:10:56;8.33;;;5.23;;
6205;SDS011;3136;48.788;9.772;2022-08-21T07:13:23;6.47;;;4.50;;
6205;SDS011;3136;48.788;9.772;2022-08-21T07:15:49;5.17;;;4.53;;
6205;SDS011;3136;48.788;9.772;2022-08-21T07:18:15;6.77;;;3.97;;
6205;SDS011;3136;48.788;9.772;2022-08-21T07:20:41;4.70;;;4.17;;
6205;SDS011;3136;48.788;9.772;2022-08-21T07:23:08;6.30;;;4.60;;
6205;SDS011;3136;48.788;9.772;2022-08-21T07:25:40;7.10;;;4.23;;
6205;SDS011;3136;48.788;9.772;2022-08-21T07:28:06;5.67;;;4.33;;
6205;SDS011;3136;48.788;9.772;2022-08-21T07:30:31;7.27;;;4.90;;
6205;SDS011;3136;48.788;9.772;2022-08-21T07:32:57;9.13;;;4.80;;
6205;SDS011;3136;48.788;9.772;2022-08-21T07:35:23;6.57;;;4.13;;
6205;SDS011;3136;48.788;9.772;2022-08-21T07:37:48;7.10;;;3.93;;
6205;SDS011;3136;48.788;9.772;2022-08-21T07:40:14;10.33;;;3.83;;
6205;SDS011;3136;48.788;9.772;2022-08-21T07:42:41;8.43;;;3.87;;
6205;SDS011;3136;48.788;9.772;2022-08-21T07:45:08;4.50;;;3.30;;
6205;SDS011;3136;48.788;9.772;2022-08-21T07:47:34;7.93;;;3.50;;
6205;SDS011;3136;48.788;9.772;2022-08-21T07:50:00;7.70;;;3.30;;
6205;SDS011;3136;48.788;9.772;2022-08-21T07:52:25;4.33;;;3.30;;
6205;SDS011;3136;48.788;9.772;2022-08-21T07:54:51;5.83;;;3.60;;
6205;SDS011;3136;48.788;9.772;2022-08-21T07:57:18;5.77;;;3.63;;
6205;SDS011;3136;48.788;9.772;2022-08-21T07:59:43;5.30;;;3.23;;
6205;SDS011;3136;48.788;9.772;2022-08-21T08:02:09;5.93;;;3.30;;
6205;SDS011;3136;48.788;9.772;2022-08-21T08:04:34;5.70;;;3.33;;
6205;SDS011;3136;48.788;9.772;2022-08-21T08:07:00;3.80;;;3.10;;
6205;SDS011;3136;48.788;9.772;2022-08-21T08:09:25;6.87;;;3.57;;
6205;SDS011;3136;48.788;9.772;2022-08-21T08:11:51;9.57;;;3.20;;
6205;SDS011;3136;48.788;9.772;2022-08-21T08:14:17;5.93;;;3.20;;
6205;SDS011;3136;48.788;9.772;2022-08-21T08:16:42;7.70;;;3.40;;
6205;SDS011;3136;48.788;9.772;2022-08-21T08:19:08;5.97;;;3.50;;
6205;SDS011;3136;48.788;9.772;2022-08-21T08:21:33;6.50;;;3.37;;
6205;SDS011;3136;48.788;9.772;2022-08-21T08:24:00;6.37;;;3.33;;
6205;SDS011;3136;48.788;9.772;2022-08-21T08:26:26;5.03;;;3.33;;
6205;SDS011;3136;48.788;9.772;2022-08-21T08:28:51;6.47;;;3.47;;
6205;SDS011;3136;48.788;9.772;2022-08-21T08:31:17;4.53;;;3.50;;
6205;SDS011;3136;48.788;9.772;2022-08-21T08:33:42;7.23;;;3.10;;
6205;SDS011;3136;48.788;9.772;2022-08-21T08:36:15;6.70;;;3.00;;
6205;SDS011;3136;48.788;9.772;2022-08-21T08:38:44;5.33;;;3.30;;
6205;SDS011;3136;48.788;9.772;2022-08-21T08:41:13;5.17;;;3.00;;
6205;SDS011;3136;48.788;9.772;2022-08-21T08:43:53;6.93;;;3.17;;
6205;SDS011;3136;48.788;9.772;2022-08-21T08:46:29;4.73;;;2.90;;
6205;SDS011;3136;48.788;9.772;2022-08-21T08:48:58;5.97;;;3.03;;
6205;SDS011;3136;48.788;9.772;2022-08-21T08:51:35;4.53;;;3.30;;
6205;SDS011;3136;48.788;9.772;2022-08-21T08:54:16;3.47;;;3.17;;
6205;SDS011;3136;48.788;9.772;2022-08-21T08:56:46;5.57;;;3.50;;
6205;SDS011;3136;48.788;9.772;2022-08-21T08:59:19;4.03;;;3.33;;
6205;SDS011;3136;48.788;9.772;2022-08-21T09:01:51;7.03;;;3.70;;
6205;SDS011;3136;48.788;9.772;2022-08-21T09:04:18;4.73;;;3.23;;
6205;SDS011;3136;48.788;9.772;2022-08-21T09:09:22;5.67;;;3.37;;
6205;SDS011;3136;48.788;9.772;2022-08-21T09:14:50;5.50;;;3.40;;
6205;SDS011;3136;48.788;9.772;2022-08-21T09:17:52;5.03;;;3.47;;
6205;SDS011;3136;48.788;9.772;2022-08-21T09:20:29;6.13;;;3.33;;
6205;SDS011;3136;48.788;9.772;2022-08-21T09:26:16;4.43;;;3.20;;
6205;SDS011;3136;48.788;9.772;2022-08-21T09:28:43;4.97;;;3.50;;
6205;SDS011;3136;48.788;9.772;2022-08-21T09:31:21;4.27;;;3.40;;
6205;SDS011;3136;48.788;9.772;2022-08-21T09:34:09;5.23;;;3.50;;
6205;SDS011;3136;48.788;9.772;2022-08-21T09:36:38;7.10;;;3.57;;
6205;SDS011;3136;48.788;9.772;2022-08-21T09:39:12;4.83;;;3.20;;
6205;SDS011;3136;48.788;9.772;2022-08-21T09:41:49;5.53;;;3.30;;
6205;SDS011;3136;48.788;9.772;2022-08-21T09:44:30;4.60;;;3.20;;
6205;SDS011;3136;48.788;9.772;2022-08-21T09:46:56;8.40;;;3.10;;
6205;SDS011;3136;48.788;9.772;2022-08-21T09:49:29;6.57;;;3.40;;
6205;SDS011;3136;48.788;9.772;2022-08-21T09:52:00;4.60;;;3.20;;
6205;SDS011;3136;48.788;9.772;2022-08-21T09:54:36;4.80;;;3.20;;
6205;SDS011;3136;48.788;9.772;2022-08-21T10:00:07;6.27;;;3.03;;
6205;SDS011;3136;48.788;9.772;2022-08-21T10:02:54;4.40;;;2.70;;
6205;SDS011;3136;48.788;9.772;2022-08-21T10:05:54;7.77;;;2.80;;
6205;SDS011;3136;48.788;9.772;2022-08-21T10:08:33;6.53;;;3.23;;
6205;SDS011;3136;48.788;9.772;2022-08-21T10:11:12;5.57;;;3.00;;
6205;SDS011;3136;48.788;9.772;2022-08-21T10:19:18;9.07;;;3.30;;
6205;SDS011;3136;48.788;9.772;2022-08-21T10:22:17;4.43;;;2.67;;
6205;SDS011;3136;48.788;9.772;2022-08-21T10:25:02;6.60;;;3.47;;
6205;SDS011;3136;48.788;9.772;2022-08-21T10:30:13;9.07;;;3.67;;
6205;SDS011;3136;48.788;9.772;2022-08-21T10:35:33;7.63;;;2.97;;
6205;SDS011;3136;48.788;9.772;2022-08-21T10:38:14;6.07;;;2.60;;
6205;SDS011;3136;48.788;9.772;2022-08-21T10:41:04;5.17;;;2.60;;
6205;SDS011;3136;48.788;9.772;2022-08-21T10:46:18;6.90;;;3.00;;
6205;SDS011;3136;48.788;9.772;2022-08-21T10:48:58;4.30;;;2.53;;
6205;SDS011;3136;48.788;9.772;2022-08-21T10:52:18;5.03;;;2.65;;
6205;SDS011;3136;48.788;9.772;2022-08-21T11:00:13;6.47;;;3.15;;
6205;SDS011;3136;48.788;9.772;2022-08-21T11:05:26;6.03;;;2.35;;
6205;SDS011;3136;48.788;9.772;2022-08-21T11:08:28;6.88;;;2.75;;
6205;SDS011;3136;48.788;9.772;2022-08-21T11:11:06;6.30;;;2.65;;
6205;SDS011;3136;48.788;9.772;2022-08-21T11:19:06;5.55;;;2.65;;
6205;SDS011;3136;48.788;9.772;2022-08-21T11:25:00;5.95;;;2.55;;
6205;SDS011;3136;48.788;9.772;2022-08-21T11:30:01;3.83;;;2.65;;
6205;SDS011;3136;48.788;9.772;2022-08-21T11:35:07;4.57;;;2.75;;
6205;SDS011;3136;48.788;9.772;2022-08-21T11:54:46;4.93;;;2.88;;
6205;SDS011;3136;48.788;9.772;2022-08-21T11:57:01;5.28;;;2.60;;
6205;SDS011;3136;48.788;9.772;2022-08-21T11:59:43;4.20;;;2.77;;
6205;SDS011;3136;48.788;9.772;2022-08-21T12:02:12;3.97;;;3.00;;
6205;SDS011;3136;48.788;9.772;2022-08-21T12:07:38;6.30;;;2.80;;
6205;SDS011;3136;48.788;9.772;2022-08-21T12:10:08;4.40;;;2.47;;
6205;SDS011;3136;48.788;9.772;2022-08-21T12:12:45;3.97;;;2.47;;
6205;SDS011;3136;48.788;9.772;2022-08-21T12:15:29;6.40;;;2.72;;
6205;SDS011;3136;48.788;9.772;2022-08-21T12:17:57;4.47;;;2.40;;
6205;SDS011;3136;48.788;9.772;2022-08-21T12:25:39;5.70;;;3.17;;
6205;SDS011;3136;48.788;9.772;2022-08-21T12:28:09;6.35;;;2.63;;
6205;SDS011;3136;48.788;9.772;2022-08-21T12:30:42;6.53;;;3.05;;
6205;SDS011;3136;48.788;9.772;2022-08-21T12:36:18;3.53;;;2.45;;
6205;SDS011;3136;48.788;9.772;2022-08-21T12:38:50;4.10;;;2.30;;
6205;SDS011;3136;48.788;9.772;2022-08-21T12:41:43;4.03;;;2.40;;
6205;SDS011;3136;48.788;9.772;2022-08-21T12:44:15;4.20;;;2.78;;
6205;SDS011;3136;48.788;9.772;2022-08-21T12:46:48;5.97;;;2.40;;
6205;SDS011;3136;48.788;9.772;2022-08-21T12:52:44;5.78;;;2.63;;
6205;SDS011;3136;48.788;9.772;2022-08-21T12:55:27;4.35;;;2.28;;
6205;SDS011;3136;48.788;9.772;2022-08-21T12:57:54;2.80;;;2.25;;
6205;SDS011;3136;48.788;9.772;2022-08-21T13:00:22;4.85;;;2.28;;
6205;SDS011;3136;48.788;9.772;2022-08-21T13:02:50;5.15;;;2.47;;
6205;SDS011;3136;48.788;9.772;2022-08-21T13:05:27;2.92;;;2.30;;
6205;SDS011;3136;48.788;9.772;2022-08-21T13:07:58;4.97;;;2.63;;
6205;SDS011;3136;48.788;9.772;2022-08-21T13:10:29;3.75;;;2.30;;
6205;SDS011;3136;48.788;9.772;2022-08-21T13:12:57;5.47;;;2.60;;
6205;SDS011;3136;48.788;9.772;2022-08-21T13:15:28;4.13;;;2.35;;
6205;SDS011;3136;48.788;9.772;2022-08-21T13:17:56;3.72;;;2.25;;
6205;SDS011;3136;48.788;9.772;2022-08-21T13:20:31;3.90;;;2.47;;
6205;SDS011;3136;48.788;9.772;2022-08-21T13:23:15;5.32;;;2.30;;
6205;SDS011;3136;48.788;9.772;2022-08-21T13:25:51;3.13;;;2.13;;
6205;SDS011;3136;48.788;9.772;2022-08-21T13:28:17;4.03;;;2.45;;
6205;SDS011;3136;48.788;9.772;2022-08-21T13:30:44;5.07;;;2.95;;
6205;SDS011;3136;48.788;9.772;2022-08-21T13:33:13;5.72;;;2.33;;
6205;SDS011;3136;48.788;9.772;2022-08-21T13:35:48;6.05;;;2.50;;
6205;SDS011;3136;48.788;9.772;2022-08-21T13:38:21;4.32;;;2.72;;
6205;SDS011;3136;48.788;9.772;2022-08-21T13:41:02;6.18;;;2.88;;
6205;SDS011;3136;48.788;9.772;2022-08-21T13:43:35;4.90;;;2.42;;
6205;SDS011;3136;48.788;9.772;2022-08-21T13:46:02;4.97;;;2.42;;
6205;SDS011;3136;48.788;9.772;2022-08-21T13:48:34;5.05;;;2.30;;
6205;SDS011;3136;48.788;9.772;2022-08-21T13:51:01;3.60;;;2.20;;
6205;SDS011;3136;48.788;9.772;2022-08-21T13:53:28;5.13;;;2.20;;
6205;SDS011;3136;48.788;9.772;2022-08-21T13:55:54;5.95;;;2.65;;
6205;SDS011;3136;48.788;9.772;2022-08-21T13:58:27;3.17;;;2.22;;
6205;SDS011;3136;48.788;9.772;2022-08-21T14:00:55;3.55;;;2.20;;
6205;SDS011;3136;48.788;9.772;2022-08-21T14:06:23;3.92;;;2.10;;
6205;SDS011;3136;48.788;9.772;2022-08-21T14:08:51;3.30;;;2.08;;
6205;SDS011;3136;48.788;9.772;2022-08-21T14:11:22;3.42;;;2.20;;
6205;SDS011;3136;48.788;9.772;2022-08-21T14:16:24;3.40;;;2.28;;
6205;SDS011;3136;48.788;9.772;2022-08-21T14:18:53;3.80;;;2.25;;
6205;SDS011;3136;48.788;9.772;2022-08-21T14:21:28;4.60;;;2.45;;
6205;SDS011;3136;48.788;9.772;2022-08-21T14:24:03;2.72;;;2.17;;
6205;SDS011;3136;48.788;9.772;2022-08-21T14:26:30;2.53;;;1.92;;
6205;SDS011;3136;48.788;9.772;2022-08-21T14:28:58;3.08;;;2.42;;
6205;SDS011;3136;48.788;9.772;2022-08-21T14:31:28;3.28;;;2.00;;
6205;SDS011;3136;48.788;9.772;2022-08-21T14:33:56;4.32;;;2.38;;
6205;SDS011;3136;48.788;9.772;2022-08-21T14:36:22;4.07;;;2.30;;
6205;SDS011;3136;48.788;9.772;2022-08-21T14:38:47;5.60;;;2.20;;
6205;SDS011;3136;48.788;9.772;2022-08-21T14:41:20;4.50;;;2.30;;
6205;SDS011;3136;48.788;9.772;2022-08-21T14:43:48;5.67;;;2.47;;
6205;SDS011;3136;48.788;9.772;2022-08-21T14:46:21;3.17;;;2.30;;
6205;SDS011;3136;48.788;9.772;2022-08-21T14:48:48;2.90;;;2.20;;
6205;SDS011;3136;48.788;9.772;2022-08-21T14:51:15;5.97;;;2.50;;
6205;SDS011;3136;48.788;9.772;2022-08-21T14:53:41;4.10;;;2.10;;
6205;SDS011;3136;48.788;9.772;2022-08-21T14:56:07;2.67;;;2.13;;
6205;SDS011;3136;48.788;9.772;2022-08-21T14:58:34;5.00;;;2.63;;
6205;SDS011;3136;48.788;9.772;2022-08-21T15:01:01;4.77;;;2.30;;
6205;SDS011;3136;48.788;9.772;2022-08-21T15:03:29;3.80;;;2.33;;
6205;SDS011;3136;48.788;9.772;2022-08-21T15:05:56;3.50;;;2.40;;
6205;SDS011;3136;48.788;9.772;2022-08-21T15:08:21;4.27;;;2.17;;
6205;SDS011;3136;48.788;9.772;2022-08-21T15:10:47;4.63;;;2.50;;
6205;SDS011;3136;48.788;9.772;2022-08-21T15:13:13;4.47;;;2.30;;
6205;SDS011;3136;48.788;9.772;2022-08-21T15:15:40;3.20;;;2.20;;
6205;SDS011;3136;48.788;9.772;2022-08-21T15:18:07;3.37;;;2.30;;
6205;SDS011;3136;48.788;9.772;2022-08-21T15:20:34;3.13;;;2.20;;
6205;SDS011;3136;48.788;9.772;2022-08-21T15:23:00;2.50;;;1.93;;
6205;SDS011;3136;48.788;9.772;2022-08-21T15:25:25;3.83;;;2.30;;
6205;SDS011;3136;48.788;9.772;2022-08-21T15:27:51;3.20;;;2.30;;
6205;SDS011;3136;48.788;9.772;2022-08-21T15:30:17;4.63;;;2.50;;
6205;SDS011;3136;48.788;9.772;2022-08-21T15:32:42;3.17;;;2.23;;
6205;SDS011;3136;48.788;9.772;2022-08-21T15:35:08;4.90;;;2.00;;
6205;SDS011;3136;48.788;9.772;2022-08-21T15:37:34;5.37;;;2.50;;
6205;SDS011;3136;48.788;9.772;2022-08-21T15:40:00;5.07;;;2.40;;
6205;SDS011;3136;48.788;9.772;2022-08-21T15:42:27;4.27;;;2.37;;
6205;SDS011;3136;48.788;9.772;2022-08-21T15:44:53;2.67;;;2.20;;
6205;SDS011;3136;48.788;9.772;2022-08-21T15:47:22;4.50;;;2.27;;
6205;SDS011;3136;48.788;9.772;2022-08-21T15:49:53;3.07;;;2.33;;
6205;SDS011;3136;48.788;9.772;2022-08-21T15:52:19;5.53;;;2.40;;
6205;SDS011;3136;48.788;9.772;2022-08-21T15:54:45;4.17;;;2.10;;
6205;SDS011;3136;48.788;9.772;2022-08-21T15:57:12;6.20;;;2.27;;
6205;SDS011;3136;48.788;9.772;2022-08-21T15:59:41;4.17;;;2.20;;
6205;SDS011;3136;48.788;9.772;2022-08-21T16:02:12;2.70;;;2.40;;
6205;SDS011;3136;48.788;9.772;2022-08-21T16:04:57;4.30;;;2.37;;
6205;SDS011;3136;48.788;9.772;2022-08-21T16:07:23;3.33;;;2.50;;
6205;SDS011;3136;48.788;9.772;2022-08-21T16:09:48;3.17;;;2.30;;
6205;SDS011;3136;48.788;9.772;2022-08-21T16:12:19;4.10;;;2.27;;
6205;SDS011;3136;48.788;9.772;2022-08-21T16:14:50;5.20;;;2.57;;
6205;SDS011;3136;48.788;9.772;2022-08-21T16:17:17;5.40;;;2.33;;
6205;SDS011;3136;48.788;9.772;2022-08-21T16:19:43;3.70;;;2.50;;
6205;SDS011;3136;48.788;9.772;2022-08-21T16:22:09;3.73;;;2.33;;
6205;SDS011;3136;48.788;9.772;2022-08-21T16:24:35;3.80;;;2.40;;
6205;SDS011;3136;48.788;9.772;2022-08-21T16:27:00;3.13;;;2.20;;
6205;SDS011;3136;48.788;9.772;2022-08-21T16:29:28;3.60;;;2.63;;
6205;SDS011;3136;48.788;9.772;2022-08-21T16:31:57;4.80;;;2.30;;
6205;SDS011;3136;48.788;9.772;2022-08-21T16:34:23;5.07;;;2.30;;
6205;SDS011;3136;48.788;9.772;2022-08-21T16:36:49;5.20;;;2.20;;
6205;SDS011;3136;48.788;9.772;2022-08-21T16:39:14;4.80;;;2.30;;
6205;SDS011;3136;48.788;9.772;2022-08-21T16:41:40;5.50;;;2.30;;
6205;SDS011;3136;48.788;9.772;2022-08-21T16:44:06;3.77;;;2.13;;
6205;SDS011;3136;48.788;9.772;2022-08-21T16:46:34;3.47;;;2.30;;